Time;durP1;ratioP1;P1;durP2;ratioP2;P2;SDS_P1;SDS_P2;PMS_P1;PMS_P2;Temp;Humidity;BMP_temperature;BMP_pressure;BME280_temperature;BME280_humidity;BME280_pressure;Samples;Min_cycle;Max_cycle;Signal;HPM_P1;HPM_P2
2020/12/09 00:00:43;;;;;;;33.50;14.18;;;;;;;-5.56;61.61;100423.64;1734716;82;21134;-39
2020/12/09 00:03:11;;;;;;;25.75;13.25;;;;;;;-5.52;61.56;100421.38;1734869;82;21231;-39
2020/12/09 00:05:39;;;;;;;27.20;13.53;;;;;;;-5.53;61.47;100421.08;1734624;82;21176;-38
2020/12/09 00:08:09;;;;;;;25.92;13.60;;;;;;;-5.59;61.60;100426.75;1734748;82;21140;-38
2020/12/09 00:10:38;;;;;;;28.67;13.43;;;;;;;-5.56;61.48;100416.23;1734749;82;21198;-39
2020/12/09 00:13:07;;;;;;;28.55;13.32;;;;;;;-5.52;61.67;100424.02;1734699;82;21151;-39
2020/12/09 00:15:35;;;;;;;27.60;12.75;;;;;;;-5.54;61.57;100424.23;1734717;82;21287;-39
2020/12/09 00:18:04;;;;;;;26.48;12.95;;;;;;;-5.55;61.40;100424.45;1734634;82;21163;-39
2020/12/09 00:20:32;;;;;;;28.70;13.30;;;;;;;-5.52;61.24;100426.14;1734799;82;21034;-39
2020/12/09 00:23:01;;;;;;;28.42;12.85;;;;;;;-5.55;60.98;100419.97;1734652;82;21582;-39
2020/12/09 00:25:29;;;;;;;22.98;12.13;;;;;;;-5.54;61.18;100422.10;1734697;82;21124;-39
2020/12/09 00:27:58;;;;;;;27.13;12.10;;;;;;;-5.59;61.37;100421.47;1734736;82;21377;-39
2020/12/09 00:30:27;;;;;;;26.30;12.30;;;;;;;-5.60;61.43;100423.81;1734673;82;21049;-39
2020/12/09 00:32:55;;;;;;;24.80;12.03;;;;;;;-5.56;61.17;100425.48;1734623;82;21147;-38
2020/12/09 00:35:23;;;;;;;23.40;12.15;;;;;;;-5.51;61.15;100429.56;1734650;82;21357;-39
2020/12/09 00:37:52;;;;;;;23.02;12.28;;;;;;;-5.50;61.04;100431.17;1734651;82;21159;-38
2020/12/09 00:40:21;;;;;;;21.15;11.00;;;;;;;-5.56;61.25;100430.76;1734664;82;21248;-38
2020/12/09 00:42:49;;;;;;;23.95;11.25;;;;;;;-5.49;61.39;100427.00;1734556;82;21171;-39
2020/12/09 00:45:20;;;;;;;23.40;11.75;;;;;;;-5.44;61.06;100432.91;1734854;82;21646;-38
2020/12/09 00:47:48;;;;;;;26.42;11.90;;;;;;;-5.40;61.04;100422.17;1734664;81;21036;-39
2020/12/09 00:52:47;;;;;;;25.95;11.57;;;;;;;-5.30;60.59;100422.41;1734139;82;21397;-39
2020/12/09 00:55:17;;;;;;;26.77;11.28;;;;;;;-5.32;60.76;100421.31;1734847;82;21558;-39
2020/12/09 00:57:47;;;;;;;23.12;10.75;;;;;;;-5.24;60.85;100413.56;1731327;82;21017;-39
2020/12/09 01:00:16;;;;;;;19.55;9.68;;;;;;;-5.24;60.85;100413.56;1705456;84;21601;-39
2020/12/09 01:02:47;;;;;;;21.73;11.63;;;;;;;-5.26;60.43;100407.70;1705316;84;21159;-39
2020/12/09 01:05:17;;;;;;;23.22;11.63;;;;;;;-5.26;60.43;100407.70;1705450;84;21601;-39
2020/12/09 01:07:45;;;;;;;21.55;11.08;;;;;;;-5.19;60.60;100412.36;1705207;84;21171;-39
2020/12/09 01:10:14;;;;;;;22.25;11.35;;;;;;;-5.13;60.41;100408.00;1705292;84;21147;-39
2020/12/09 01:12:42;;;;;;;24.92;10.65;;;;;;;-5.12;60.36;100402.45;1705244;84;21163;-39
2020/12/09 01:15:10;;;;;;;22.17;10.93;;;;;;;-5.19;60.25;100392.54;1705357;84;21159;-38
2020/12/09 01:17:39;;;;;;;21.60;11.18;;;;;;;-5.06;60.15;100396.77;1705346;84;21174;-39
2020/12/09 01:20:08;;;;;;;23.15;11.57;;;;;;;-5.06;60.15;100396.77;1705248;83;21036;-39
2020/12/09 01:22:36;;;;;;;19.50;10.78;;;;;;;-5.04;60.27;100399.48;1705273;84;21060;-38
2020/12/09 01:25:05;;;;;;;19.05;9.63;;;;;;;-5.04;59.90;100398.16;1705476;84;21166;-39
2020/12/09 01:27:33;;;;;;;21.07;11.50;;;;;;;-5.07;60.25;100398.60;1705372;83;21151;-39
2020/12/09 01:30:02;;;;;;;18.62;10.10;;;;;;;-5.07;60.37;100396.47;1705203;84;21605;-39
2020/12/09 01:32:30;;;;;;;25.60;11.80;;;;;;;-5.00;60.27;100404.59;1705180;84;21175;-39
2020/12/09 01:34:59;;;;;;;25.85;12.28;;;;;;;-4.94;59.99;100394.38;1705207;84;21021;-39
2020/12/09 01:37:27;;;;;;;21.95;11.00;;;;;;;-5.00;59.96;100387.41;1705172;84;21151;-39
2020/12/09 01:39:56;;;;;;;23.02;12.28;;;;;;;-4.96;60.06;100391.70;1710612;82;21171;-39
2020/12/09 01:42:24;;;;;;;26.57;11.88;;;;;;;-5.25;60.41;100328.70;1734590;82;21449;-39
2020/12/09 01:44:52;;;;;;;22.73;11.40;;;;;;;-5.25;60.41;100328.70;1734469;82;21167;-39
2020/12/09 01:47:21;;;;;;;20.48;10.63;;;;;;;-4.84;59.76;100390.63;1741053;82;21024;-39
2020/12/09 01:49:50;;;;;;;23.80;11.57;;;;;;;-4.80;59.81;100398.12;1733949;82;21175;-39
2020/12/09 01:52:19;;;;;;;23.25;11.78;;;;;;;-4.83;59.85;100395.41;1718770;83;21154;-39
2020/12/09 01:54:50;;;;;;;21.55;10.88;;;;;;;-4.77;59.74;100402.93;1718732;83;21344;-39
2020/12/09 01:57:18;;;;;;;20.20;10.48;;;;;;;-4.74;59.56;100394.55;1718782;83;21028;-39
2020/12/09 01:59:47;;;;;;;28.42;12.00;;;;;;;-4.75;59.59;100401.67;1718658;83;21142;-39
2020/12/09 02:02:15;;;;;;;23.55;10.80;;;;;;;-4.71;59.58;100402.00;1718742;83;21189;-39
2020/12/09 02:04:44;;;;;;;21.10;10.88;;;;;;;-4.70;59.65;100398.33;1718806;83;21170;-39
2020/12/09 02:07:12;;;;;;;19.20;9.85;;;;;;;-4.71;59.52;100401.48;1718678;83;21282;-39
2020/12/09 02:09:41;;;;;;;20.95;10.48;;;;;;;-4.63;59.27;100402.44;1718794;83;21178;-38
2020/12/09 02:12:10;;;;;;;15.80;8.30;;;;;;;-4.63;59.27;100402.44;1719055;83;21175;-39
2020/12/09 02:14:39;;;;;;;19.65;10.48;;;;;;;-4.60;59.17;100395.89;1718828;83;21205;-39
2020/12/09 02:17:08;;;;;;;20.05;10.10;;;;;;;-4.58;58.96;100399.08;1718836;83;21613;-39
2020/12/09 02:19:36;;;;;;;20.02;10.80;;;;;;;-4.58;59.09;100395.11;1718798;83;22162;-39
2020/12/09 02:22:11;;;;;;;22.82;10.90;;;;;;;-4.53;59.14;100401.83;1718609;83;21187;-39
2020/12/09 02:24:40;;;;;;;18.67;10.45;;;;;;;-4.52;58.57;100401.61;1718826;83;21190;-39
2020/12/09 02:27:09;;;;;;;20.90;10.32;;;;;;;-4.58;58.80;100397.24;1718778;83;21647;-39
2020/12/09 02:29:38;;;;;;;15.53;8.18;;;;;;;-4.58;58.88;100401.22;1718922;83;21150;-39
2020/12/09 02:32:06;;;;;;;20.25;10.20;;;;;;;-4.59;59.27;100413.34;1718689;83;21292;-39
2020/12/09 02:34:34;;;;;;;21.30;10.18;;;;;;;-4.59;59.27;100413.34;1718706;83;21067;-39
2020/12/09 02:37:03;;;;;;;21.45;10.68;;;;;;;-4.54;59.24;100412.12;1718691;83;21040;-39
2020/12/09 02:39:36;;;;;;;24.60;11.25;;;;;;;-4.55;59.23;100417.94;1719186;82;21136;-39
2020/12/09 02:42:04;;;;;;;24.65;10.20;;;;;;;-4.50;58.92;100422.00;1748579;82;21139;-39
2020/12/09 02:44:34;;;;;;;21.42;10.30;;;;;;;-4.47;58.84;100428.69;1748734;82;21819;-39
2020/12/09 02:47:03;;;;;;;20.60;10.50;;;;;;;-4.46;58.71;100431.11;1745613;81;21186;-39
2020/12/09 02:49:31;;;;;;;19.52;9.78;;;;;;;-4.46;58.71;100431.11;1734593;82;20985;-38
2020/12/09 02:52:00;;;;;;;23.02;10.72;;;;;;;-4.45;59.00;100426.59;1734583;82;21119;-38
2020/12/09 02:54:28;;;;;;;22.52;10.88;;;;;;;-4.47;58.90;100422.07;1730199;82;21481;-39
2020/12/09 02:56:56;;;;;;;22.67;10.00;;;;;;;-4.79;59.11;100378.02;1705220;83;21379;-39
2020/12/09 02:59:25;;;;;;;18.57;10.95;;;;;;;-4.44;59.38;100425.05;1705180;84;21148;-39
2020/12/09 03:01:53;;;;;;;20.52;10.30;;;;;;;-4.43;59.40;100420.56;1705187;83;21124;-39
2020/12/09 03:04:21;;;;;;;21.27;10.13;;;;;;;-4.37;59.38;100418.30;1705215;84;21115;-39
2020/12/09 03:06:50;;;;;;;22.40;10.43;;;;;;;-4.35;59.01;100421.50;1705291;83;21111;-39
2020/12/09 03:09:18;;;;;;;20.82;10.65;;;;;;;-4.41;59.18;100422.46;1705447;84;21264;-39
2020/12/09 03:11:46;;;;;;;20.17;9.85;;;;;;;-4.38;59.39;100419.33;1705314;84;21194;-38
2020/12/09 03:14:15;;;;;;;22.32;10.25;;;;;;;-4.37;59.06;100415.66;1705375;84;21143;-39
2020/12/09 03:16:44;;;;;;;20.43;10.50;;;;;;;-4.41;59.41;100417.17;1705310;84;21147;-39
2020/12/09 03:19:13;;;;;;;21.50;10.03;;;;;;;-4.41;59.30;100418.48;1705542;84;21167;-39
2020/12/09 03:21:42;;;;;;;25.65;11.08;;;;;;;-4.38;59.58;100423.30;1705366;84;21381;-39
2020/12/09 03:24:11;;;;;;;20.90;8.88;;;;;;;-4.38;59.58;100423.30;1705493;83;21764;-39
2020/12/09 03:26:39;;;;;;;19.25;9.85;;;;;;;-4.36;59.61;100424.40;1705301;84;21135;-39
2020/12/09 03:29:07;;;;;;;25.72;10.68;;;;;;;-4.31;59.54;100424.50;1705378;84;21139;-39
2020/12/09 03:31:36;;;;;;;19.45;10.25;;;;;;;-4.34;59.56;100421.79;1705451;83;21151;-39
2020/12/09 03:34:04;;;;;;;21.85;10.03;;;;;;;-4.34;59.97;100424.44;1705316;84;21471;-39
2020/12/09 03:36:33;;;;;;;20.45;10.03;;;;;;;-4.32;59.79;100417.08;1705310;84;21155;-39
2020/12/09 03:39:01;;;;;;;25.20;10.53;;;;;;;-4.34;59.94;100412.52;1705252;84;21785;-39
2020/12/09 03:41:30;;;;;;;21.87;9.73;;;;;;;-4.29;59.79;100406.00;1729803;82;21020;-39
2020/12/09 03:43:58;;;;;;;22.93;10.55;;;;;;;-4.21;59.73;100401.64;1734651;82;21187;-39
2020/12/09 03:46:26;;;;;;;22.07;10.20;;;;;;;-4.23;59.73;100397.13;1734663;82;21438;-39
2020/12/09 03:48:55;;;;;;;22.48;10.95;;;;;;;-4.19;59.89;100403.55;1746067;82;21138;-38
2020/12/09 03:51:23;;;;;;;19.62;10.08;;;;;;;-4.16;59.77;100403.06;1748745;82;21131;-39
2020/12/09 03:53:52;;;;;;;16.87;9.13;;;;;;;-4.12;59.79;100398.92;1748734;82;21622;-39
2020/12/09 03:56:20;;;;;;;17.20;9.48;;;;;;;-4.08;59.56;100405.34;1748809;82;21122;-39
2020/12/09 03:58:49;;;;;;;18.12;9.98;;;;;;;-4.11;59.66;100403.67;1748696;82;21206;-39
2020/12/09 04:01:17;;;;;;;21.48;9.98;;;;;;;-4.11;59.59;100391.23;1748666;82;21152;-39
2020/12/09 04:03:46;;;;;;;17.92;9.78;;;;;;;-4.09;59.60;100405.05;1748881;82;21601;-39
2020/12/09 04:06:15;;;;;;;24.82;10.55;;;;;;;-4.10;60.04;100399.47;1749001;82;21629;-38
2020/12/09 04:08:46;;;;;;;20.68;9.73;;;;;;;-4.08;59.96;100397.92;1748652;82;21127;-38
2020/12/09 04:11:15;;;;;;;20.12;9.90;;;;;;;-4.05;59.93;100398.23;1748737;82;21208;-39
2020/12/09 04:13:43;;;;;;;20.05;9.88;;;;;;;-4.04;59.83;100393.75;1748595;82;21138;-39
2020/12/09 04:16:11;;;;;;;21.50;10.18;;;;;;;-4.00;60.10;100398.33;1748740;82;21154;-39
2020/12/09 04:18:39;;;;;;;21.02;9.18;;;;;;;-4.01;59.96;100395.91;1748667;82;21141;-39
2020/12/09 04:21:08;;;;;;;20.08;10.80;;;;;;;-4.00;59.96;100393.55;1748672;82;21111;-39
2020/12/09 04:23:36;;;;;;;18.67;9.58;;;;;;;-3.96;60.22;100398.12;1748722;82;21278;-38
2020/12/09 04:26:05;;;;;;;20.48;10.95;;;;;;;-3.99;60.02;100395.16;1748562;82;21233;-39
2020/12/09 04:28:33;;;;;;;19.32;10.32;;;;;;;-3.96;60.02;100400.77;1748654;82;21143;-39
2020/12/09 04:31:01;;;;;;;22.58;11.05;;;;;;;-3.91;59.89;100403.23;1748618;82;21163;-39
2020/12/09 04:33:30;;;;;;;20.62;10.50;;;;;;;-3.92;60.13;100397.67;1748739;82;21110;-39
2020/12/09 04:35:58;;;;;;;20.05;10.43;;;;;;;-3.85;59.94;100395.66;1748609;82;21425;-39
2020/12/09 04:38:27;;;;;;;20.05;9.35;;;;;;;-3.86;59.81;100396.69;1721403;82;21170;-39
2020/12/09 04:40:55;;;;;;;19.20;10.72;;;;;;;-3.90;60.07;100393.72;1748608;82;21035;-39
2020/12/09 04:43:24;;;;;;;20.05;10.95;;;;;;;-3.84;60.18;100401.24;1748668;82;21103;-39
2020/12/09 04:45:52;;;;;;;20.97;10.13;;;;;;;-3.84;59.99;100395.95;1748582;82;21150;-39
2020/12/09 04:48:20;;;;;;;22.62;10.13;;;;;;;-3.85;59.72;100394.33;1742284;81;21198;-39
2020/12/09 04:51:31;;;;;;;22.42;10.25;;;;;;;-3.83;60.09;100397.04;1734583;82;21189;-39
2020/12/09 04:53:59;;;;;;;20.82;10.05;;;;;;;-3.83;60.32;100404.18;1734638;82;21167;-39
2020/12/09 04:56:38;;;;;;;17.85;10.15;;;;;;;-3.83;60.54;100404.18;1734654;82;21616;-38
2020/12/09 04:59:17;;;;;;;21.35;10.80;;;;;;;-3.84;60.31;100400.72;1729657;82;21111;-39
2020/12/09 05:02:05;;;;;;;22.17;11.68;;;;;;;-3.87;60.34;100402.51;1734788;82;21720;-39
2020/12/09 05:04:34;;;;;;;18.37;9.93;;;;;;;-3.87;60.64;100403.83;1729323;82;21606;-39
2020/12/09 05:07:09;;;;;;;18.23;10.65;;;;;;;-3.92;60.92;100396.34;1734629;82;21413;-39
2020/12/09 05:09:47;;;;;;;20.55;10.65;;;;;;;-3.87;60.88;100402.51;1734639;82;21171;-39
2020/12/09 05:12:17;;;;;;;21.35;10.50;;;;;;;-3.87;60.71;100402.51;1734812;81;21687;-39
2020/12/09 05:14:49;;;;;;;20.05;10.70;;;;;;;-3.91;61.03;100397.41;1734856;82;22092;-39
2020/12/09 05:17:19;;;;;;;21.60;11.08;;;;;;;-3.94;61.10;100400.55;1734725;82;21171;-39
2020/12/09 05:19:48;;;;;;;17.87;10.95;;;;;;;-3.90;61.16;100404.84;1734826;82;21135;-38
2020/12/09 05:22:20;;;;;;;21.60;10.57;;;;;;;-3.89;61.34;100403.80;1734860;82;21167;-39
2020/12/09 05:24:49;;;;;;;20.35;11.18;;;;;;;-3.89;61.36;100406.45;1734681;82;21132;-39
2020/12/09 05:27:18;;;;;;;22.50;11.88;;;;;;;-3.92;61.42;100406.94;1734778;82;21543;-39
2020/12/09 05:29:48;;;;;;;17.80;9.83;;;;;;;-3.85;61.45;100408.38;1734531;82;21155;-38
2020/12/09 05:32:18;;;;;;;20.23;10.48;;;;;;;-3.84;61.30;100402.56;1734646;82;21581;-39
2020/12/09 05:34:46;;;;;;;19.02;10.50;;;;;;;-3.83;61.43;100412.12;1734610;82;21068;-39
2020/12/09 05:37:15;;;;;;;19.42;10.85;;;;;;;-3.80;61.45;100413.77;1734629;82;21092;-39
2020/12/09 05:39:54;;;;;;;19.10;10.45;;;;;;;-3.78;61.49;100411.70;1734491;82;23576;-39
2020/12/09 05:42:23;;;;;;;21.45;10.45;;;;;;;-3.79;61.59;100404.78;1734769;82;21168;-39
2020/12/09 05:44:52;;;;;;;24.87;11.90;;;;;;;-3.89;61.92;100407.78;1734646;82;20993;-39
2020/12/09 05:47:21;;;;;;;20.00;11.55;;;;;;;-3.85;62.14;100407.58;1734542;82;21171;-39
2020/12/09 05:49:50;;;;;;;26.82;10.63;;;;;;;-3.83;61.94;100408.16;1734803;82;21159;-39
2020/12/09 05:52:20;;;;;;;20.68;11.25;;;;;;;-3.84;62.55;100400.72;1734609;82;21333;-38
2020/12/09 05:54:51;;;;;;;20.55;11.35;;;;;;;-3.80;62.39;100398.39;1734715;82;21159;-39
2020/12/09 05:57:26;;;;;;;21.10;10.75;;;;;;;-3.77;62.49;100399.22;1734713;82;21032;-39
2020/12/09 05:59:54;;;;;;;24.27;12.28;;;;;;;-3.75;62.43;100401.12;1734636;82;21147;-39
2020/12/09 06:02:26;;;;;;;20.60;11.50;;;;;;;-3.72;62.59;100394.02;1734654;82;21124;-39
2020/12/09 06:04:59;;;;;;;20.57;11.63;;;;;;;-3.66;62.49;100400.48;1734563;82;21372;-39
2020/12/09 06:07:31;;;;;;;21.93;11.73;;;;;;;-3.69;62.65;100397.52;1734528;82;21896;-39
2020/12/09 06:10:19;;;;;;;20.65;11.75;;;;;;;-3.67;62.78;100391.44;1734625;82;21052;-39
2020/12/09 06:13:00;;;;;;;20.70;12.03;;;;;;;-3.63;62.72;100403.97;1734605;82;21633;-39
2020/12/09 06:15:33;;;;;;;25.85;11.33;;;;;;;-3.64;62.95;100395.77;1734707;82;21588;-39
2020/12/09 06:18:13;;;;;;;25.75;12.50;;;;;;;-3.61;62.94;100402.41;1734578;82;21337;-39
2020/12/09 06:20:43;;;;;;;23.25;12.33;;;;;;;-3.63;63.10;100399.22;1734486;81;20961;-39
2020/12/09 06:23:16;;;;;;;24.57;12.28;;;;;;;-3.69;63.39;100397.52;1734679;82;21020;-39
2020/12/09 06:25:46;;;;;;;26.95;12.03;;;;;;;-3.65;63.49;100401.30;1734554;82;21152;-39
2020/12/09 06:28:18;;;;;;;24.32;12.53;;;;;;;-3.63;63.61;100399.22;1734708;82;21595;-39
2020/12/09 06:30:47;;;;;;;24.47;12.90;;;;;;;-3.61;63.65;100402.41;1734676;82;22112;-39
2020/12/09 06:33:34;;;;;;;23.07;12.67;;;;;;;-3.69;63.93;100402.83;1734877;82;21033;-39
2020/12/09 06:36:24;;;;;;;21.95;11.28;;;;;;;-3.70;64.20;100405.19;1734651;82;21684;-39
2020/12/09 06:39:14;;;;;;;30.20;13.88;;;;;;;-3.66;64.49;100403.14;1734560;82;21170;-39
2020/12/09 06:42:00;;;;;;;25.90;12.93;;;;;;;-3.73;64.71;100414.43;1734852;82;21013;-39
2020/12/09 06:44:30;;;;;;;23.07;11.97;;;;;;;-3.78;65.13;100416.99;1734615;82;21271;-39
2020/12/09 06:46:59;;;;;;;19.73;10.35;;;;;;;-3.71;65.15;100420.80;1734845;82;22085;-39
2020/12/09 06:49:33;;;;;;;28.20;13.15;;;;;;;-3.65;65.28;100416.67;1734709;81;23460;-39
2020/12/09 06:52:15;;;;;;;24.30;13.25;;;;;;;-3.63;65.34;100417.77;1734481;82;21113;-39
2020/12/09 06:54:47;;;;;;;21.93;12.35;;;;;;;-3.58;65.15;100412.52;1733644;82;21155;-39
2020/12/09 06:57:38;;;;;;;25.10;12.47;;;;;;;-3.51;65.49;100421.94;1734616;82;23520;-39
2020/12/09 07:00:20;;;;;;;25.30;13.48;;;;;;;-3.51;65.49;100421.94;1734669;82;21056;-39
2020/12/09 07:04:06;;;;;;;26.52;12.68;;;;;;;-3.46;65.41;100419.08;1773921;79;22768;-38
2020/12/09 07:06:34;;;;;;;29.57;13.78;;;;;;;-3.55;65.79;100429.28;1685223;85;21198;-38
2020/12/09 07:09:03;;;;;;;25.43;13.50;;;;;;;-3.54;65.85;100429.05;1713800;83;21289;-38
2020/12/09 07:11:31;;;;;;;26.93;13.50;;;;;;;-3.54;66.09;100427.73;1685969;85;20975;-38
2020/12/09 07:14:05;;;;;;;26.90;14.00;;;;;;;-3.54;66.04;100429.58;1707890;84;21043;-38
2020/12/09 07:16:32;;;;;;;29.52;14.50;;;;;;;-3.51;66.04;100426.44;1707951;84;21036;-38
2020/12/09 07:19:01;;;;;;;30.55;14.13;;;;;;;-3.56;66.22;100425.02;1707903;84;21047;-38
2020/12/09 07:21:29;;;;;;;24.23;12.80;;;;;;;-3.58;66.64;100429.75;1693666;84;21347;-38
2020/12/09 07:24:03;;;;;;;26.37;13.80;;;;;;;-3.56;66.65;100425.02;1679344;85;20991;-38
2020/12/09 07:26:34;;;;;;;26.45;13.80;;;;;;;-3.56;67.01;100431.65;1679434;85;21024;-38
2020/12/09 07:29:02;;;;;;;28.38;14.05;;;;;;;-3.48;66.86;100439.19;1679415;85;21174;-38
2020/12/09 07:31:32;;;;;;;27.73;13.48;;;;;;;-3.42;67.04;100439.56;1679613;85;21193;-38
2020/12/09 07:34:03;;;;;;;26.60;13.98;;;;;;;-3.35;66.94;100440.73;1679380;85;21269;-38
2020/12/09 07:36:33;;;;;;;25.12;13.55;;;;;;;-3.35;67.23;100438.89;1679445;85;21170;-38
2020/12/09 07:39:01;;;;;;;30.77;13.98;;;;;;;-3.32;66.97;100437.59;1679366;85;21150;-38
2020/12/09 07:41:30;;;;;;;25.20;13.55;;;;;;;-3.34;67.00;100433.07;1679398;85;21166;-38
2020/12/09 07:43:58;;;;;;;29.18;13.78;;;;;;;-3.38;67.16;100436.70;1652879;85;21162;-38
2020/12/09 07:46:29;;;;;;;28.38;14.70;;;;;;;-3.32;67.40;100438.40;1679450;85;21304;-38
2020/12/09 07:49:00;;;;;;;25.40;14.07;;;;;;;-3.32;67.73;100435.75;1679308;85;21153;-38
2020/12/09 07:51:29;;;;;;;27.45;14.93;;;;;;;-3.23;67.83;100433.48;1679389;85;21500;-38
2020/12/09 07:53:57;;;;;;;28.05;15.18;;;;;;;-3.17;67.53;100437.83;1679439;85;21720;-38
2020/12/09 07:56:25;;;;;;;25.80;14.90;;;;;;;-3.21;67.63;100436.19;1679387;85;21138;-38
2020/12/09 07:58:55;;;;;;;29.15;14.63;;;;;;;-3.20;67.79;100433.02;1679450;85;21383;-38
2020/12/09 08:01:27;;;;;;;30.30;14.53;;;;;;;-3.21;67.63;100433.54;1652192;85;21202;-38
2020/12/09 08:03:56;;;;;;;31.05;14.75;;;;;;;-3.18;67.87;100442.33;1641391;86;21414;-38
2020/12/09 08:06:24;;;;;;;26.95;14.95;;;;;;;-3.14;67.66;100435.48;1667234;86;21190;-38
2020/12/09 08:08:53;;;;;;;31.20;15.23;;;;;;;-3.15;67.88;100436.52;1667254;86;21183;-38
2020/12/09 08:11:23;;;;;;;27.62;13.98;;;;;;;-3.14;68.09;100439.46;1667316;86;21219;-38
2020/12/09 08:13:55;;;;;;;28.35;14.53;;;;;;;-3.04;68.12;100437.48;1638500;86;21155;-38
2020/12/09 08:16:29;;;;;;;27.17;14.00;;;;;;;-2.98;68.05;100443.66;1618098;86;21024;-38
2020/12/09 08:21:47;;;;;;;29.27;14.70;;;;;;;-2.88;67.37;100439.83;1840941;78;22362;-38
2020/12/09 08:24:15;;;;;;;30.52;13.98;;;;;;;-2.96;67.47;100445.56;1816298;79;21003;-38
2020/12/09 08:26:45;;;;;;;27.90;13.72;;;;;;;-2.98;67.78;100443.66;1816277;79;21422;-38
2020/12/09 08:29:17;;;;;;;25.68;14.07;;;;;;;-2.93;67.52;100440.56;1816368;79;22085;-38
2020/12/09 08:31:45;;;;;;;27.60;13.68;;;;;;;-2.83;67.75;100446.53;1816213;79;21396;-38
2020/12/09 08:34:14;;;;;;;24.10;13.75;;;;;;;-2.80;67.64;100441.53;1816263;79;21003;-38
2020/12/09 08:36:43;;;;;;;28.27;15.10;;;;;;;-2.74;67.50;100440.56;1816429;79;21027;-38
2020/12/09 08:39:12;;;;;;;27.35;14.78;;;;;;;-2.65;67.37;100444.39;1782956;79;21415;-37
2020/12/09 08:41:40;;;;;;;27.00;14.10;;;;;;;-2.63;67.35;100440.17;1787063;79;21011;-38
2020/12/09 08:44:08;;;;;;;30.60;14.20;;;;;;;-2.57;67.28;100440.52;1783997;80;21014;-38
2020/12/09 08:46:37;;;;;;;27.02;14.43;;;;;;;-2.52;66.89;100443.23;1784097;80;21030;-38
2020/12/09 08:49:05;;;;;;;27.05;14.07;;;;;;;-2.55;66.78;100440.25;1784093;80;21149;-38
2020/12/09 08:51:34;;;;;;;25.92;15.10;;;;;;;-2.97;67.04;100376.30;1783920;80;21375;-38
2020/12/09 08:54:07;;;;;;;28.65;14.60;;;;;;;-2.59;67.16;100430.66;1783945;80;21163;-38
2020/12/09 08:56:35;;;;;;;27.98;13.60;;;;;;;-2.56;66.89;100432.01;1784166;80;21105;-38
2020/12/09 08:59:04;;;;;;;25.08;13.98;;;;;;;-2.57;67.00;100429.91;1783967;80;21540;-38
2020/12/09 09:01:37;;;;;;;26.55;13.80;;;;;;;-2.66;67.28;100420.73;1784003;80;21196;-38
2020/12/09 09:04:10;;;;;;;26.27;14.43;;;;;;;-2.59;67.45;100431.98;1784028;80;23500;-38
2020/12/09 09:06:38;;;;;;;28.35;14.25;;;;;;;-2.46;67.32;100428.95;1789878;79;20981;-38
2020/12/09 09:09:08;;;;;;;22.07;12.53;;;;;;;-2.46;67.14;100428.15;1745924;82;21601;-38
2020/12/09 09:11:36;;;;;;;32.05;15.35;;;;;;;-2.41;66.95;100426.36;1745617;82;21623;-38
2020/12/09 09:14:09;;;;;;;28.23;14.28;;;;;;;-2.40;66.73;100423.98;1763784;81;21599;-38
2020/12/09 09:16:38;;;;;;;29.32;15.88;;;;;;;-2.44;67.41;100430.05;1745598;82;21388;-38
2020/12/09 09:19:06;;;;;;;32.93;14.95;;;;;;;-2.43;67.42;100428.48;1745445;82;21195;-38
2020/12/09 09:21:37;;;;;;;26.95;14.53;;;;;;;-2.44;67.32;100426.87;1761654;81;21171;-38
2020/12/09 09:24:05;;;;;;;26.02;14.30;;;;;;;-2.42;67.20;100423.97;1812122;79;21479;-38
2020/12/09 09:26:34;;;;;;;27.95;14.25;;;;;;;-2.38;67.34;100432.52;1745842;82;21116;-38
2020/12/09 09:29:05;;;;;;;28.32;13.65;;;;;;;-2.40;67.04;100430.63;1812175;79;21546;-38
2020/12/09 09:31:33;;;;;;;25.57;13.85;;;;;;;-2.38;66.93;100439.16;1811989;79;21119;-38
2020/12/09 09:34:02;;;;;;;25.50;13.50;;;;;;;-2.29;66.92;100428.38;1745192;82;21028;-38
2020/12/09 09:36:32;;;;;;;25.08;13.40;;;;;;;-2.62;66.93;100374.09;1811647;79;21193;-38
2020/12/09 09:39:02;;;;;;;26.02;13.68;;;;;;;-2.18;66.71;100430.63;1811560;79;21134;-38
2020/12/09 09:41:30;;;;;;;25.97;13.22;;;;;;;-2.14;66.64;100431.72;1748213;82;21409;-38
2020/12/09 09:44:00;;;;;;;;;;;;;;;-2.05;66.09;100426.76;1751173;82;21074;-40
2020/12/09 09:46:28;;;;;;;23.70;12.90;;;;;;;-1.96;65.93;100425.25;1748770;81;20205;-38
2020/12/09 09:48:59;;;;;;;21.82;13.58;;;;;;;-2.04;65.85;100427.04;1748576;82;21037;-38
2020/12/09 09:51:27;;;;;;;;;;;;;;;-1.98;66.12;100417.52;1751337;82;21161;-38
2020/12/09 09:53:55;;;;;;;25.43;14.00;;;;;;;-1.90;65.75;100411.77;1748758;81;22141;-38
2020/12/09 09:56:23;;;;;;;27.30;13.80;;;;;;;-2.02;65.66;100401.81;1748570;82;21013;-38
2020/12/09 09:58:52;;;;;;;26.57;13.55;;;;;;;-2.04;65.73;100401.80;1748730;82;21015;-38
2020/12/09 10:01:20;;;;;;;25.02;13.58;;;;;;;-2.02;66.03;100399.68;1748712;82;21092;-38
2020/12/09 10:03:48;;;;;;;25.65;13.38;;;;;;;-2.03;66.21;100400.75;1748652;82;21189;-38
2020/12/09 10:06:17;;;;;;;29.90;15.03;;;;;;;-1.96;66.26;100393.36;1748622;82;21207;-38
2020/12/09 10:08:46;;;;;;;25.25;14.25;;;;;;;-1.94;65.98;100392.08;1748677;82;21121;-38
2020/12/09 10:11:16;;;;;;;24.90;13.25;;;;;;;-1.97;66.06;100392.56;1748780;82;21143;-38
2020/12/09 10:13:44;;;;;;;31.15;15.20;;;;;;;-1.99;66.06;100397.34;1748713;82;21130;-38
2020/12/09 10:16:12;;;;;;;24.65;12.90;;;;;;;-1.94;66.34;100403.23;1748716;82;21151;-38
2020/12/09 10:18:41;;;;;;;24.82;13.70;;;;;;;-1.95;66.54;100399.77;1748748;82;21181;-38
2020/12/09 10:21:10;;;;;;;26.60;13.90;;;;;;;-1.93;66.34;100400.83;1738957;82;21157;-38
2020/12/09 10:23:40;;;;;;;25.55;13.83;;;;;;;-1.98;66.41;100390.14;1728715;83;21035;-38
2020/12/09 10:26:08;;;;;;;21.52;12.85;;;;;;;-1.99;66.53;100391.22;1728573;83;20988;-38
2020/12/09 10:28:39;;;;;;;22.17;13.20;;;;;;;-1.95;66.64;100388.33;1728734;83;21150;-39
2020/12/09 10:31:09;;;;;;;19.92;12.20;;;;;;;-1.95;66.90;100385.67;1726288;83;21170;-39
2020/12/09 10:33:39;;;;;;;22.22;12.82;;;;;;;-1.91;66.43;100384.11;1728814;83;21138;-39
2020/12/09 10:36:08;;;;;;;24.20;12.95;;;;;;;-1.96;66.61;100390.19;1728626;83;21035;-39
2020/12/09 10:38:36;;;;;;;23.70;12.23;;;;;;;-1.95;66.88;100389.66;1728665;82;21178;-39
2020/12/09 10:41:09;;;;;;;23.27;12.82;;;;;;;-1.93;66.94;100394.18;1728808;81;21194;-39
2020/12/09 10:43:39;;;;;;;24.65;13.00;;;;;;;-1.91;67.14;100388.10;1694418;82;21370;-39
2020/12/09 10:46:08;;;;;;;23.98;13.38;;;;;;;-1.86;66.81;100392.94;1725941;83;21050;-39
2020/12/09 10:48:37;;;;;;;23.07;13.13;;;;;;;-1.90;66.63;100394.50;1696391;84;21625;-39
2020/12/09 10:51:05;;;;;;;26.40;13.68;;;;;;;-1.95;66.95;100393.13;1725905;83;21182;-39
2020/12/09 10:53:34;;;;;;;25.83;14.10;;;;;;;-1.97;66.92;100391.23;1696364;84;21162;-39
2020/12/09 10:56:04;;;;;;;29.63;13.95;;;;;;;-1.99;66.89;100400.00;1694300;82;22040;-39
2020/12/09 10:58:32;;;;;;;24.65;13.83;;;;;;;-1.99;66.98;100397.34;1696234;84;21751;-39
2020/12/09 11:01:01;;;;;;;30.60;13.70;;;;;;;-2.01;67.18;100389.33;1725901;83;21177;-39
2020/12/09 11:03:31;;;;;;;24.35;14.13;;;;;;;-2.02;67.45;100394.36;1696312;84;21118;-39
2020/12/09 11:06:01;;;;;;;29.30;14.80;;;;;;;-1.96;67.48;100394.70;1726082;83;21158;-39
2020/12/09 11:08:31;;;;;;;28.45;14.47;;;;;;;-1.91;67.25;100384.92;1696292;84;21395;-39
2020/12/09 11:10:59;;;;;;;29.02;12.68;;;;;;;-1.91;67.08;100387.58;1726041;83;21158;-39
2020/12/09 11:13:28;;;;;;;26.52;13.88;;;;;;;-1.86;67.02;100381.50;1696291;84;21135;-39
2020/12/09 11:15:56;;;;;;;27.93;13.22;;;;;;;-1.87;67.17;100390.52;1726039;83;21189;-39
2020/12/09 11:18:27;;;;;;;27.90;13.75;;;;;;;-1.85;67.04;100385.77;1696423;84;21162;-39
2020/12/09 11:20:55;;;;;;;24.43;14.07;;;;;;;-1.80;66.84;100384.48;1736514;79;21334;-39
2020/12/09 11:23:25;;;;;;;25.75;12.75;;;;;;;-1.83;66.79;100390.29;1772577;81;21129;-39
2020/12/09 11:25:55;;;;;;;24.75;12.88;;;;;;;-1.80;66.54;100387.14;1772632;81;21145;-39
2020/12/09 11:28:25;;;;;;;27.85;16.05;;;;;;;-1.77;66.59;100379.98;1772561;81;21035;-39
2020/12/09 11:30:55;;;;;;;;;;;;;;;-1.80;66.69;100378.64;1775224;81;21162;-39